sensor_id;sensor_type;location;lat;lon;timestamp;P1;durP1;ratioP1;P2;durP2;ratioP2
62582;SDS011;48641;51.676;5.808;2023-11-21T00:00:15;5.93;;;2.30;;
62582;SDS011;48641;51.676;5.808;2023-11-21T00:02:41;5.47;;;2.30;;
62582;SDS011;48641;51.676;5.808;2023-11-21T00:05:12;5.28;;;2.20;;
62582;SDS011;48641;51.676;5.808;2023-11-21T00:07:41;4.88;;;2.10;;
62582;SDS011;48641;51.676;5.808;2023-11-21T00:10:08;5.07;;;2.20;;
62582;SDS011;48641;51.676;5.808;2023-11-21T00:12:35;7.20;;;2.60;;
62582;SDS011;48641;51.676;5.808;2023-11-21T00:15:01;5.65;;;2.15;;
62582;SDS011;48641;51.676;5.808;2023-11-21T00:17:27;5.38;;;2.50;;
62582;SDS011;48641;51.676;5.808;2023-11-21T00:19:53;4.72;;;2.13;;
62582;SDS011;48641;51.676;5.808;2023-11-21T00:22:18;5.63;;;2.50;;
62582;SDS011;48641;51.676;5.808;2023-11-21T00:24:45;6.18;;;2.38;;
62582;SDS011;48641;51.676;5.808;2023-11-21T00:27:11;5.68;;;2.03;;
62582;SDS011;48641;51.676;5.808;2023-11-21T00:29:36;5.93;;;2.55;;
62582;SDS011;48641;51.676;5.808;2023-11-21T00:32:03;5.93;;;2.13;;
62582;SDS011;48641;51.676;5.808;2023-11-21T00:34:30;5.78;;;2.58;;
62582;SDS011;48641;51.676;5.808;2023-11-21T00:36:56;5.32;;;2.38;;
62582;SDS011;48641;51.676;5.808;2023-11-21T00:39:22;5.28;;;2.22;;
62582;SDS011;48641;51.676;5.808;2023-11-21T00:41:47;5.28;;;2.08;;
62582;SDS011;48641;51.676;5.808;2023-11-21T00:44:13;6.28;;;2.20;;
62582;SDS011;48641;51.676;5.808;2023-11-21T00:46:39;6.03;;;2.15;;
62582;SDS011;48641;51.676;5.808;2023-11-21T00:49:04;4.78;;;2.00;;
62582;SDS011;48641;51.676;5.808;2023-11-21T00:51:30;6.68;;;2.33;;
62582;SDS011;48641;51.676;5.808;2023-11-21T00:53:56;7.32;;;2.53;;
62582;SDS011;48641;51.676;5.808;2023-11-21T00:56:21;5.65;;;2.15;;
62582;SDS011;48641;51.676;5.808;2023-11-21T00:58:47;5.82;;;2.38;;
62582;SDS011;48641;51.676;5.808;2023-11-21T01:01:17;5.32;;;2.13;;
62582;SDS011;48641;51.676;5.808;2023-11-21T01:03:47;6.53;;;2.53;;
62582;SDS011;48641;51.676;5.808;2023-11-21T01:06:13;5.85;;;2.40;;
62582;SDS011;48641;51.676;5.808;2023-11-21T01:08:39;5.50;;;2.40;;
62582;SDS011;48641;51.676;5.808;2023-11-21T01:11:05;5.47;;;2.15;;
62582;SDS011;48641;51.676;5.808;2023-11-21T01:13:33;5.55;;;2.20;;
62582;SDS011;48641;51.676;5.808;2023-11-21T01:15:59;5.28;;;2.38;;
62582;SDS011;48641;51.676;5.808;2023-11-21T01:18:24;5.22;;;2.42;;
62582;SDS011;48641;51.676;5.808;2023-11-21T01:20:54;6.78;;;2.53;;
62582;SDS011;48641;51.676;5.808;2023-11-21T01:23:19;5.88;;;2.40;;
62582;SDS011;48641;51.676;5.808;2023-11-21T01:25:45;4.63;;;2.17;;
62582;SDS011;48641;51.676;5.808;2023-11-21T01:28:10;6.68;;;2.60;;
62582;SDS011;48641;51.676;5.808;2023-11-21T01:30:37;5.32;;;2.20;;
62582;SDS011;48641;51.676;5.808;2023-11-21T01:33:02;6.55;;;2.53;;
62582;SDS011;48641;51.676;5.808;2023-11-21T01:35:28;5.68;;;2.33;;
62582;SDS011;48641;51.676;5.808;2023-11-21T01:37:54;6.13;;;2.50;;
62582;SDS011;48641;51.676;5.808;2023-11-21T01:40:19;5.80;;;2.45;;
62582;SDS011;48641;51.676;5.808;2023-11-21T01:42:46;6.38;;;2.45;;
62582;SDS011;48641;51.676;5.808;2023-11-21T01:45:12;6.50;;;2.60;;
62582;SDS011;48641;51.676;5.808;2023-11-21T01:47:38;6.20;;;2.45;;
62582;SDS011;48641;51.676;5.808;2023-11-21T01:50:06;5.60;;;2.30;;
62582;SDS011;48641;51.676;5.808;2023-11-21T01:52:34;6.55;;;2.63;;
62582;SDS011;48641;51.676;5.808;2023-11-21T01:55:00;5.38;;;2.40;;
62582;SDS011;48641;51.676;5.808;2023-11-21T01:57:26;6.43;;;2.40;;
62582;SDS011;48641;51.676;5.808;2023-11-21T01:59:52;6.45;;;2.40;;
62582;SDS011;48641;51.676;5.808;2023-11-21T02:02:19;5.25;;;2.40;;
62582;SDS011;48641;51.676;5.808;2023-11-21T02:04:45;5.38;;;2.47;;
62582;SDS011;48641;51.676;5.808;2023-11-21T02:07:11;6.45;;;2.58;;
62582;SDS011;48641;51.676;5.808;2023-11-21T02:09:37;7.05;;;2.58;;
62582;SDS011;48641;51.676;5.808;2023-11-21T02:12:03;7.13;;;2.85;;
62582;SDS011;48641;51.676;5.808;2023-11-21T02:14:30;6.28;;;2.33;;
62582;SDS011;48641;51.676;5.808;2023-11-21T02:16:56;7.10;;;2.70;;
62582;SDS011;48641;51.676;5.808;2023-11-21T02:19:23;5.75;;;2.50;;
62582;SDS011;48641;51.676;5.808;2023-11-21T02:21:53;6.65;;;2.53;;
62582;SDS011;48641;51.676;5.808;2023-11-21T02:24:23;5.82;;;2.50;;
62582;SDS011;48641;51.676;5.808;2023-11-21T02:26:49;7.85;;;2.65;;
62582;SDS011;48641;51.676;5.808;2023-11-21T02:29:16;6.00;;;2.58;;
62582;SDS011;48641;51.676;5.808;2023-11-21T02:31:43;6.00;;;2.90;;
62582;SDS011;48641;51.676;5.808;2023-11-21T02:34:16;6.45;;;2.83;;
62582;SDS011;48641;51.676;5.808;2023-11-21T02:36:43;6.57;;;2.60;;
62582;SDS011;48641;51.676;5.808;2023-11-21T02:39:12;7.28;;;2.72;;
62582;SDS011;48641;51.676;5.808;2023-11-21T02:41:38;7.68;;;2.88;;
62582;SDS011;48641;51.676;5.808;2023-11-21T02:44:04;7.53;;;3.05;;
62582;SDS011;48641;51.676;5.808;2023-11-21T02:46:31;6.43;;;2.83;;
62582;SDS011;48641;51.676;5.808;2023-11-21T02:51:26;7.47;;;2.88;;
62582;SDS011;48641;51.676;5.808;2023-11-21T02:53:52;7.68;;;3.03;;
62582;SDS011;48641;51.676;5.808;2023-11-21T02:56:17;5.75;;;2.20;;
62582;SDS011;48641;51.676;5.808;2023-11-21T02:58:43;5.63;;;2.70;;
62582;SDS011;48641;51.676;5.808;2023-11-21T03:01:09;6.68;;;2.58;;
62582;SDS011;48641;51.676;5.808;2023-11-21T03:03:36;5.93;;;2.60;;
62582;SDS011;48641;51.676;5.808;2023-11-21T03:06:04;6.65;;;3.03;;
62582;SDS011;48641;51.676;5.808;2023-11-21T03:08:29;7.18;;;2.72;;
62582;SDS011;48641;51.676;5.808;2023-11-21T03:10:55;5.88;;;2.60;;
62582;SDS011;48641;51.676;5.808;2023-11-21T03:13:21;6.38;;;2.67;;
62582;SDS011;48641;51.676;5.808;2023-11-21T03:15:46;6.57;;;2.58;;
62582;SDS011;48641;51.676;5.808;2023-11-21T03:18:12;6.03;;;2.60;;
62582;SDS011;48641;51.676;5.808;2023-11-21T03:20:38;6.00;;;2.47;;
62582;SDS011;48641;51.676;5.808;2023-11-21T03:23:03;6.13;;;2.50;;
62582;SDS011;48641;51.676;5.808;2023-11-21T03:25:30;5.68;;;2.45;;
62582;SDS011;48641;51.676;5.808;2023-11-21T03:27:56;5.53;;;2.40;;
62582;SDS011;48641;51.676;5.808;2023-11-21T03:30:21;6.28;;;2.47;;
62582;SDS011;48641;51.676;5.808;2023-11-21T03:32:47;5.97;;;2.45;;
62582;SDS011;48641;51.676;5.808;2023-11-21T03:35:13;5.10;;;2.38;;
62582;SDS011;48641;51.676;5.808;2023-11-21T03:37:38;5.47;;;2.40;;
62582;SDS011;48641;51.676;5.808;2023-11-21T03:40:06;5.75;;;2.40;;
62582;SDS011;48641;51.676;5.808;2023-11-21T03:42:33;6.15;;;2.58;;
62582;SDS011;48641;51.676;5.808;2023-11-21T03:44:59;6.03;;;2.60;;
62582;SDS011;48641;51.676;5.808;2023-11-21T03:47:26;7.30;;;2.83;;
62582;SDS011;48641;51.676;5.808;2023-11-21T03:49:52;6.40;;;2.40;;
62582;SDS011;48641;51.676;5.808;2023-11-21T03:52:18;6.07;;;2.60;;
62582;SDS011;48641;51.676;5.808;2023-11-21T03:54:43;5.65;;;2.10;;
62582;SDS011;48641;51.676;5.808;2023-11-21T03:57:09;6.20;;;2.60;;
62582;SDS011;48641;51.676;5.808;2023-11-21T03:59:35;6.00;;;2.80;;
62582;SDS011;48641;51.676;5.808;2023-11-21T04:02:04;6.13;;;2.55;;
62582;SDS011;48641;51.676;5.808;2023-11-21T04:04:30;5.28;;;2.22;;
62582;SDS011;48641;51.676;5.808;2023-11-21T04:06:55;6.13;;;2.53;;
62582;SDS011;48641;51.676;5.808;2023-11-21T04:09:21;5.90;;;2.50;;
62582;SDS011;48641;51.676;5.808;2023-11-21T04:11:50;5.72;;;2.53;;
62582;SDS011;48641;51.676;5.808;2023-11-21T04:14:16;6.45;;;2.60;;
62582;SDS011;48641;51.676;5.808;2023-11-21T04:16:42;5.78;;;2.40;;
62582;SDS011;48641;51.676;5.808;2023-11-21T04:19:07;6.28;;;2.72;;
62582;SDS011;48641;51.676;5.808;2023-11-21T04:21:35;7.32;;;2.70;;
62582;SDS011;48641;51.676;5.808;2023-11-21T04:24:04;6.70;;;2.67;;
62582;SDS011;48641;51.676;5.808;2023-11-21T04:26:30;5.78;;;2.30;;
62582;SDS011;48641;51.676;5.808;2023-11-21T04:28:55;7.10;;;2.83;;
62582;SDS011;48641;51.676;5.808;2023-11-21T04:31:21;5.10;;;2.30;;
62582;SDS011;48641;51.676;5.808;2023-11-21T04:33:46;5.68;;;2.47;;
62582;SDS011;48641;51.676;5.808;2023-11-21T04:36:12;6.00;;;2.42;;
62582;SDS011;48641;51.676;5.808;2023-11-21T04:38:38;5.75;;;2.28;;
62582;SDS011;48641;51.676;5.808;2023-11-21T04:41:03;6.50;;;2.80;;
62582;SDS011;48641;51.676;5.808;2023-11-21T04:43:29;7.18;;;2.92;;
62582;SDS011;48641;51.676;5.808;2023-11-21T04:45:55;5.95;;;2.50;;
62582;SDS011;48641;51.676;5.808;2023-11-21T04:48:20;6.25;;;2.58;;
62582;SDS011;48641;51.676;5.808;2023-11-21T04:50:46;5.72;;;2.47;;
62582;SDS011;48641;51.676;5.808;2023-11-21T04:53:11;6.25;;;2.50;;
62582;SDS011;48641;51.676;5.808;2023-11-21T04:55:39;6.47;;;2.67;;
62582;SDS011;48641;51.676;5.808;2023-11-21T04:58:08;6.47;;;2.40;;
62582;SDS011;48641;51.676;5.808;2023-11-21T05:00:34;5.90;;;2.22;;
62582;SDS011;48641;51.676;5.808;2023-11-21T05:03:01;5.78;;;2.45;;
62582;SDS011;48641;51.676;5.808;2023-11-21T05:05:28;6.00;;;2.45;;
62582;SDS011;48641;51.676;5.808;2023-11-21T05:07:55;6.35;;;2.65;;
62582;SDS011;48641;51.676;5.808;2023-11-21T05:10:20;5.75;;;2.22;;
62582;SDS011;48641;51.676;5.808;2023-11-21T05:12:47;5.13;;;2.25;;
62582;SDS011;48641;51.676;5.808;2023-11-21T05:15:15;5.97;;;2.45;;
62582;SDS011;48641;51.676;5.808;2023-11-21T05:17:42;5.30;;;2.17;;
62582;SDS011;48641;51.676;5.808;2023-11-21T05:20:09;6.00;;;2.40;;
62582;SDS011;48641;51.676;5.808;2023-11-21T05:22:36;5.68;;;2.13;;
62582;SDS011;48641;51.676;5.808;2023-11-21T05:25:02;6.18;;;2.72;;
62582;SDS011;48641;51.676;5.808;2023-11-21T05:27:29;6.20;;;2.60;;
62582;SDS011;48641;51.676;5.808;2023-11-21T05:29:58;5.88;;;2.60;;
62582;SDS011;48641;51.676;5.808;2023-11-21T05:32:24;5.47;;;2.35;;
62582;SDS011;48641;51.676;5.808;2023-11-21T05:34:50;5.72;;;2.55;;
62582;SDS011;48641;51.676;5.808;2023-11-21T05:37:16;5.95;;;2.58;;
62582;SDS011;48641;51.676;5.808;2023-11-21T05:39:42;5.38;;;2.55;;
62582;SDS011;48641;51.676;5.808;2023-11-21T05:42:08;5.97;;;2.33;;
62582;SDS011;48641;51.676;5.808;2023-11-21T05:44:35;6.13;;;2.50;;
62582;SDS011;48641;51.676;5.808;2023-11-21T05:47:02;5.22;;;2.08;;
62582;SDS011;48641;51.676;5.808;2023-11-21T05:49:28;5.82;;;2.47;;
62582;SDS011;48641;51.676;5.808;2023-11-21T05:51:54;6.90;;;2.30;;
62582;SDS011;48641;51.676;5.808;2023-11-21T05:54:20;6.50;;;2.53;;
62582;SDS011;48641;51.676;5.808;2023-11-21T05:56:46;4.85;;;2.10;;
62582;SDS011;48641;51.676;5.808;2023-11-21T05:59:12;6.28;;;2.50;;
62582;SDS011;48641;51.676;5.808;2023-11-21T06:01:37;5.72;;;2.70;;
62582;SDS011;48641;51.676;5.808;2023-11-21T06:04:04;5.75;;;2.35;;
62582;SDS011;48641;51.676;5.808;2023-11-21T06:06:30;5.78;;;2.20;;
62582;SDS011;48641;51.676;5.808;2023-11-21T06:08:56;5.78;;;2.53;;
62582;SDS011;48641;51.676;5.808;2023-11-21T06:11:22;5.80;;;2.30;;
62582;SDS011;48641;51.676;5.808;2023-11-21T06:13:49;5.32;;;2.60;;
62582;SDS011;48641;51.676;5.808;2023-11-21T06:16:15;5.15;;;2.28;;
62582;SDS011;48641;51.676;5.808;2023-11-21T06:18:43;5.95;;;2.58;;
62582;SDS011;48641;51.676;5.808;2023-11-21T06:21:10;5.82;;;2.58;;
62582;SDS011;48641;51.676;5.808;2023-11-21T06:23:35;6.20;;;2.55;;
62582;SDS011;48641;51.676;5.808;2023-11-21T06:26:01;5.18;;;2.10;;
62582;SDS011;48641;51.676;5.808;2023-11-21T06:28:26;5.47;;;2.15;;
62582;SDS011;48641;51.676;5.808;2023-11-21T06:30:52;5.32;;;2.20;;
62582;SDS011;48641;51.676;5.808;2023-11-21T06:33:18;4.65;;;2.15;;
62582;SDS011;48641;51.676;5.808;2023-11-21T06:35:44;6.32;;;2.38;;
62582;SDS011;48641;51.676;5.808;2023-11-21T06:38:10;5.60;;;2.20;;
62582;SDS011;48641;51.676;5.808;2023-11-21T06:40:35;5.90;;;2.28;;
62582;SDS011;48641;51.676;5.808;2023-11-21T06:43:01;5.93;;;2.10;;
62582;SDS011;48641;51.676;5.808;2023-11-21T06:45:27;5.95;;;2.45;;
62582;SDS011;48641;51.676;5.808;2023-11-21T06:47:53;5.85;;;2.42;;
62582;SDS011;48641;51.676;5.808;2023-11-21T06:50:19;5.80;;;2.15;;
62582;SDS011;48641;51.676;5.808;2023-11-21T06:52:45;5.30;;;2.40;;
62582;SDS011;48641;51.676;5.808;2023-11-21T06:55:10;5.70;;;2.40;;
62582;SDS011;48641;51.676;5.808;2023-11-21T06:57:36;6.72;;;2.47;;
62582;SDS011;48641;51.676;5.808;2023-11-21T07:00:03;5.38;;;2.15;;
62582;SDS011;48641;51.676;5.808;2023-11-21T07:02:29;5.95;;;2.25;;
62582;SDS011;48641;51.676;5.808;2023-11-21T07:04:55;5.13;;;2.20;;
62582;SDS011;48641;51.676;5.808;2023-11-21T07:07:21;6.90;;;2.20;;
62582;SDS011;48641;51.676;5.808;2023-11-21T07:09:46;9.00;;;2.63;;
62582;SDS011;48641;51.676;5.808;2023-11-21T07:12:13;6.10;;;2.30;;
62582;SDS011;48641;51.676;5.808;2023-11-21T07:14:39;5.72;;;2.45;;
62582;SDS011;48641;51.676;5.808;2023-11-21T07:17:06;4.75;;;1.95;;
62582;SDS011;48641;51.676;5.808;2023-11-21T07:19:32;6.45;;;2.22;;
62582;SDS011;48641;51.676;5.808;2023-11-21T07:21:59;5.68;;;2.03;;
62582;SDS011;48641;51.676;5.808;2023-11-21T07:24:25;6.10;;;2.05;;
62582;SDS011;48641;51.676;5.808;2023-11-21T07:26:51;6.22;;;2.22;;
62582;SDS011;48641;51.676;5.808;2023-11-21T07:29:21;6.65;;;2.22;;
62582;SDS011;48641;51.676;5.808;2023-11-21T07:31:48;7.20;;;2.47;;
62582;SDS011;48641;51.676;5.808;2023-11-21T07:34:14;6.18;;;2.30;;
62582;SDS011;48641;51.676;5.808;2023-11-21T07:36:40;6.60;;;2.50;;
62582;SDS011;48641;51.676;5.808;2023-11-21T07:39:06;5.95;;;2.15;;
62582;SDS011;48641;51.676;5.808;2023-11-21T07:41:31;6.47;;;2.10;;
62582;SDS011;48641;51.676;5.808;2023-11-21T07:43:57;6.60;;;2.20;;
62582;SDS011;48641;51.676;5.808;2023-11-21T07:46:23;7.57;;;2.75;;
62582;SDS011;48641;51.676;5.808;2023-11-21T07:48:49;5.82;;;2.35;;
62582;SDS011;48641;51.676;5.808;2023-11-21T07:51:14;6.50;;;2.72;;
62582;SDS011;48641;51.676;5.808;2023-11-21T07:53:41;6.38;;;2.38;;
62582;SDS011;48641;51.676;5.808;2023-11-21T07:56:07;6.03;;;2.40;;
62582;SDS011;48641;51.676;5.808;2023-11-21T07:58:34;6.55;;;2.70;;
62582;SDS011;48641;51.676;5.808;2023-11-21T08:01:00;5.93;;;2.45;;
62582;SDS011;48641;51.676;5.808;2023-11-21T08:03:26;7.53;;;2.70;;
62582;SDS011;48641;51.676;5.808;2023-11-21T08:05:52;6.47;;;2.65;;
62582;SDS011;48641;51.676;5.808;2023-11-21T08:08:18;24.35;;;4.45;;
62582;SDS011;48641;51.676;5.808;2023-11-21T08:10:44;18.75;;;4.35;;
62582;SDS011;48641;51.676;5.808;2023-11-21T08:13:21;13.77;;;3.70;;
62582;SDS011;48641;51.676;5.808;2023-11-21T08:18:15;10.00;;;3.80;;
62582;SDS011;48641;51.676;5.808;2023-11-21T08:20:42;14.10;;;3.90;;
62582;SDS011;48641;51.676;5.808;2023-11-21T08:23:08;10.63;;;4.03;;
62582;SDS011;48641;51.676;5.808;2023-11-21T08:25:34;11.15;;;3.78;;
62582;SDS011;48641;51.676;5.808;2023-11-21T08:28:00;11.38;;;4.10;;
62582;SDS011;48641;51.676;5.808;2023-11-21T08:30:26;9.00;;;3.50;;
62582;SDS011;48641;51.676;5.808;2023-11-21T08:32:54;12.47;;;3.90;;
62582;SDS011;48641;51.676;5.808;2023-11-21T08:35:23;13.32;;;3.88;;
62582;SDS011;48641;51.676;5.808;2023-11-21T08:37:51;8.90;;;3.13;;
62582;SDS011;48641;51.676;5.808;2023-11-21T08:40:17;10.48;;;4.65;;
62582;SDS011;48641;51.676;5.808;2023-11-21T08:42:44;10.93;;;3.88;;
62582;SDS011;48641;51.676;5.808;2023-11-21T08:45:11;10.00;;;3.08;;
62582;SDS011;48641;51.676;5.808;2023-11-21T08:47:37;9.30;;;3.40;;
62582;SDS011;48641;51.676;5.808;2023-11-21T08:50:04;10.60;;;3.40;;
62582;SDS011;48641;51.676;5.808;2023-11-21T08:52:32;9.75;;;3.80;;
62582;SDS011;48641;51.676;5.808;2023-11-21T08:54:58;9.45;;;3.30;;
62582;SDS011;48641;51.676;5.808;2023-11-21T08:59:53;7.45;;;3.08;;
62582;SDS011;48641;51.676;5.808;2023-11-21T09:02:23;7.10;;;3.28;;
62582;SDS011;48641;51.676;5.808;2023-11-21T09:04:51;8.25;;;3.42;;
62582;SDS011;48641;51.676;5.808;2023-11-21T09:07:17;7.82;;;3.28;;
62582;SDS011;48641;51.676;5.808;2023-11-21T09:09:45;7.82;;;3.05;;
62582;SDS011;48641;51.676;5.808;2023-11-21T09:12:11;7.75;;;2.90;;
62582;SDS011;48641;51.676;5.808;2023-11-21T09:14:37;8.30;;;3.38;;
62582;SDS011;48641;51.676;5.808;2023-11-21T09:17:04;6.30;;;2.58;;
62582;SDS011;48641;51.676;5.808;2023-11-21T09:19:35;7.47;;;2.70;;
62582;SDS011;48641;51.676;5.808;2023-11-21T09:22:01;6.53;;;2.60;;
62582;SDS011;48641;51.676;5.808;2023-11-21T09:24:27;7.85;;;3.45;;
62582;SDS011;48641;51.676;5.808;2023-11-21T09:26:53;7.00;;;3.00;;
62582;SDS011;48641;51.676;5.808;2023-11-21T09:29:18;11.82;;;3.25;;
62582;SDS011;48641;51.676;5.808;2023-11-21T09:31:44;11.15;;;3.30;;
62582;SDS011;48641;51.676;5.808;2023-11-21T09:34:10;7.85;;;3.17;;
62582;SDS011;48641;51.676;5.808;2023-11-21T09:36:36;11.88;;;3.13;;
62582;SDS011;48641;51.676;5.808;2023-11-21T09:39:04;6.90;;;3.05;;
62582;SDS011;48641;51.676;5.808;2023-11-21T09:44:09;8.30;;;3.22;;
62582;SDS011;48641;51.676;5.808;2023-11-21T09:46:40;9.50;;;3.25;;
62582;SDS011;48641;51.676;5.808;2023-11-21T09:49:09;8.98;;;3.40;;
62582;SDS011;48641;51.676;5.808;2023-11-21T09:51:38;7.70;;;3.33;;
62582;SDS011;48641;51.676;5.808;2023-11-21T09:54:07;9.45;;;3.50;;
62582;SDS011;48641;51.676;5.808;2023-11-21T09:56:35;8.52;;;3.15;;
62582;SDS011;48641;51.676;5.808;2023-11-21T09:59:01;8.80;;;3.63;;
62582;SDS011;48641;51.676;5.808;2023-11-21T10:01:32;6.95;;;3.15;;
62582;SDS011;48641;51.676;5.808;2023-11-21T10:03:58;8.07;;;3.13;;
62582;SDS011;48641;51.676;5.808;2023-11-21T10:06:24;7.63;;;2.78;;
62582;SDS011;48641;51.676;5.808;2023-11-21T10:08:52;8.05;;;2.80;;
62582;SDS011;48641;51.676;5.808;2023-11-21T10:11:21;8.82;;;2.72;;
62582;SDS011;48641;51.676;5.808;2023-11-21T10:13:49;11.27;;;3.13;;
62582;SDS011;48641;51.676;5.808;2023-11-21T10:18:46;6.18;;;2.35;;
62582;SDS011;48641;51.676;5.808;2023-11-21T10:21:15;7.28;;;2.60;;
62582;SDS011;48641;51.676;5.808;2023-11-21T10:23:41;7.35;;;2.70;;
62582;SDS011;48641;51.676;5.808;2023-11-21T10:26:08;6.15;;;2.50;;
62582;SDS011;48641;51.676;5.808;2023-11-21T10:28:43;8.15;;;2.65;;
62582;SDS011;48641;51.676;5.808;2023-11-21T10:31:21;6.35;;;2.30;;
62582;SDS011;48641;51.676;5.808;2023-11-21T10:33:49;5.82;;;2.63;;
62582;SDS011;48641;51.676;5.808;2023-11-21T10:36:24;8.95;;;2.80;;
62582;SDS011;48641;51.676;5.808;2023-11-21T10:38:53;5.60;;;2.38;;
62582;SDS011;48641;51.676;5.808;2023-11-21T10:41:19;6.35;;;2.42;;
62582;SDS011;48641;51.676;5.808;2023-11-21T10:43:45;6.65;;;2.55;;
62582;SDS011;48641;51.676;5.808;2023-11-21T10:46:11;7.00;;;2.50;;
62582;SDS011;48641;51.676;5.808;2023-11-21T10:48:40;6.25;;;2.60;;
62582;SDS011;48641;51.676;5.808;2023-11-21T10:51:09;5.53;;;2.17;;
62582;SDS011;48641;51.676;5.808;2023-11-21T10:53:38;9.02;;;3.22;;
62582;SDS011;48641;51.676;5.808;2023-11-21T10:56:05;7.07;;;2.95;;
62582;SDS011;48641;51.676;5.808;2023-11-21T10:58:33;7.25;;;2.80;;
62582;SDS011;48641;51.676;5.808;2023-11-21T11:01:00;9.02;;;3.42;;
62582;SDS011;48641;51.676;5.808;2023-11-21T11:03:30;7.50;;;3.28;;
62582;SDS011;48641;51.676;5.808;2023-11-21T11:05:58;7.78;;;2.88;;
62582;SDS011;48641;51.676;5.808;2023-11-21T11:08:24;6.68;;;2.53;;
62582;SDS011;48641;51.676;5.808;2023-11-21T11:10:52;6.38;;;2.67;;
62582;SDS011;48641;51.676;5.808;2023-11-21T11:13:18;8.63;;;2.78;;
62582;SDS011;48641;51.676;5.808;2023-11-21T11:15:47;9.70;;;2.90;;
62582;SDS011;48641;51.676;5.808;2023-11-21T11:18:14;7.53;;;2.90;;
62582;SDS011;48641;51.676;5.808;2023-11-21T11:20:41;8.02;;;2.95;;
62582;SDS011;48641;51.676;5.808;2023-11-21T11:34:47;6.95;;;2.83;;
62582;SDS011;48641;51.676;5.808;2023-11-21T11:37:34;6.97;;;2.72;;
62582;SDS011;48641;51.676;5.808;2023-11-21T11:40:00;7.30;;;2.78;;
62582;SDS011;48641;51.676;5.808;2023-11-21T11:42:26;7.40;;;2.72;;
62582;SDS011;48641;51.676;5.808;2023-11-21T11:44:52;8.15;;;3.00;;
62582;SDS011;48641;51.676;5.808;2023-11-21T11:47:20;7.10;;;2.65;;
62582;SDS011;48641;51.676;5.808;2023-11-21T11:52:54;6.00;;;2.50;;
62582;SDS011;48641;51.676;5.808;2023-11-21T11:55:22;5.78;;;2.80;;
62582;SDS011;48641;51.676;5.808;2023-11-21T12:00:20;7.95;;;2.80;;
62582;SDS011;48641;51.676;5.808;2023-11-21T12:02:59;6.53;;;2.78;;
62582;SDS011;48641;51.676;5.808;2023-11-21T12:05:28;6.50;;;2.60;;
62582;SDS011;48641;51.676;5.808;2023-11-21T12:07:58;6.65;;;2.70;;
62582;SDS011;48641;51.676;5.808;2023-11-21T12:10:29;6.50;;;2.67;;
62582;SDS011;48641;51.676;5.808;2023-11-21T12:13:05;6.40;;;2.40;;
62582;SDS011;48641;51.676;5.808;2023-11-21T12:15:35;6.22;;;2.50;;
62582;SDS011;48641;51.676;5.808;2023-11-21T12:18:01;6.07;;;2.40;;
62582;SDS011;48641;51.676;5.808;2023-11-21T12:20:28;6.15;;;2.50;;
62582;SDS011;48641;51.676;5.808;2023-11-21T12:22:56;6.57;;;2.58;;
62582;SDS011;48641;51.676;5.808;2023-11-21T12:25:25;6.72;;;2.70;;
62582;SDS011;48641;51.676;5.808;2023-11-21T12:27:54;6.82;;;2.50;;
62582;SDS011;48641;51.676;5.808;2023-11-21T12:30:22;7.18;;;2.60;;
62582;SDS011;48641;51.676;5.808;2023-11-21T12:32:52;6.78;;;2.90;;
62582;SDS011;48641;51.676;5.808;2023-11-21T12:35:19;6.15;;;2.83;;
62582;SDS011;48641;51.676;5.808;2023-11-21T12:37:46;7.43;;;2.70;;
62582;SDS011;48641;51.676;5.808;2023-11-21T12:40:13;7.57;;;2.53;;
62582;SDS011;48641;51.676;5.808;2023-11-21T12:42:43;7.18;;;2.83;;
62582;SDS011;48641;51.676;5.808;2023-11-21T12:45:18;6.72;;;2.67;;
62582;SDS011;48641;51.676;5.808;2023-11-21T12:47:49;7.63;;;2.60;;
62582;SDS011;48641;51.676;5.808;2023-11-21T12:50:22;6.95;;;2.80;;
62582;SDS011;48641;51.676;5.808;2023-11-21T12:52:51;7.10;;;2.80;;
62582;SDS011;48641;51.676;5.808;2023-11-21T12:55:19;6.05;;;2.42;;
62582;SDS011;48641;51.676;5.808;2023-11-21T12:57:51;7.30;;;2.38;;
62582;SDS011;48641;51.676;5.808;2023-11-21T13:00:27;6.55;;;2.60;;
62582;SDS011;48641;51.676;5.808;2023-11-21T13:02:57;6.40;;;2.28;;
62582;SDS011;48641;51.676;5.808;2023-11-21T13:05:27;5.97;;;2.33;;
62582;SDS011;48641;51.676;5.808;2023-11-21T13:07:55;6.35;;;2.33;;
62582;SDS011;48641;51.676;5.808;2023-11-21T13:10:25;7.55;;;2.60;;
62582;SDS011;48641;51.676;5.808;2023-11-21T13:12:54;6.95;;;2.75;;
62582;SDS011;48641;51.676;5.808;2023-11-21T13:15:26;7.10;;;2.50;;
62582;SDS011;48641;51.676;5.808;2023-11-21T13:17:53;7.03;;;2.60;;
62582;SDS011;48641;51.676;5.808;2023-11-21T13:20:19;6.93;;;2.53;;
62582;SDS011;48641;51.676;5.808;2023-11-21T13:25:18;6.38;;;2.45;;
62582;SDS011;48641;51.676;5.808;2023-11-21T13:30:10;7.13;;;2.67;;
62582;SDS011;48641;51.676;5.808;2023-11-21T13:32:48;6.72;;;2.30;;
62582;SDS011;48641;51.676;5.808;2023-11-21T13:35:16;5.67;;;2.20;;
62582;SDS011;48641;51.676;5.808;2023-11-21T13:37:56;6.63;;;2.10;;
62582;SDS011;48641;51.676;5.808;2023-11-21T13:40:25;6.10;;;2.30;;
62582;SDS011;48641;51.676;5.808;2023-11-21T13:42:55;7.03;;;2.40;;
62582;SDS011;48641;51.676;5.808;2023-11-21T13:45:24;5.30;;;2.20;;
62582;SDS011;48641;51.676;5.808;2023-11-21T13:47:53;5.70;;;2.30;;
62582;SDS011;48641;51.676;5.808;2023-11-21T13:50:23;7.10;;;2.38;;
62582;SDS011;48641;51.676;5.808;2023-11-21T13:52:58;5.90;;;2.40;;
62582;SDS011;48641;51.676;5.808;2023-11-21T13:55:30;3.78;;;1.90;;
62582;SDS011;48641;51.676;5.808;2023-11-21T13:57:56;6.15;;;2.45;;
62582;SDS011;48641;51.676;5.808;2023-11-21T14:00:22;5.35;;;2.10;;
62582;SDS011;48641;51.676;5.808;2023-11-21T14:03:06;5.93;;;2.40;;
62582;SDS011;48641;51.676;5.808;2023-11-21T14:05:41;5.60;;;2.08;;
62582;SDS011;48641;51.676;5.808;2023-11-21T14:08:09;5.45;;;2.38;;
62582;SDS011;48641;51.676;5.808;2023-11-21T14:10:37;5.82;;;2.00;;
62582;SDS011;48641;51.676;5.808;2023-11-21T14:13:08;5.63;;;2.00;;
62582;SDS011;48641;51.676;5.808;2023-11-21T14:15:35;5.82;;;2.17;;
62582;SDS011;48641;51.676;5.808;2023-11-21T14:18:09;4.95;;;1.90;;
62582;SDS011;48641;51.676;5.808;2023-11-21T14:20:38;5.03;;;1.92;;
62582;SDS011;48641;51.676;5.808;2023-11-21T14:23:06;4.30;;;1.77;;
62582;SDS011;48641;51.676;5.808;2023-11-21T14:25:35;4.78;;;2.15;;
62582;SDS011;48641;51.676;5.808;2023-11-21T14:28:07;5.60;;;2.10;;
62582;SDS011;48641;51.676;5.808;2023-11-21T14:30:32;4.72;;;2.00;;
62582;SDS011;48641;51.676;5.808;2023-11-21T14:33:01;5.50;;;2.20;;
62582;SDS011;48641;51.676;5.808;2023-11-21T14:35:27;5.05;;;1.90;;
62582;SDS011;48641;51.676;5.808;2023-11-21T14:37:55;5.63;;;2.10;;
62582;SDS011;48641;51.676;5.808;2023-11-21T14:40:20;4.70;;;2.00;;
62582;SDS011;48641;51.676;5.808;2023-11-21T14:42:49;4.72;;;1.90;;
62582;SDS011;48641;51.676;5.808;2023-11-21T14:45:18;5.73;;;2.10;;
62582;SDS011;48641;51.676;5.808;2023-11-21T14:47:45;4.95;;;1.60;;
62582;SDS011;48641;51.676;5.808;2023-11-21T14:50:20;3.58;;;1.48;;
62582;SDS011;48641;51.676;5.808;2023-11-21T14:53:10;4.68;;;1.70;;
62582;SDS011;48641;51.676;5.808;2023-11-21T14:55:37;4.18;;;1.70;;
62582;SDS011;48641;51.676;5.808;2023-11-21T14:58:18;5.30;;;2.00;;
62582;SDS011;48641;51.676;5.808;2023-11-21T15:00:57;4.90;;;2.58;;
62582;SDS011;48641;51.676;5.808;2023-11-21T15:03:24;5.32;;;1.98;;
62582;SDS011;48641;51.676;5.808;2023-11-21T15:05:57;4.10;;;1.80;;
62582;SDS011;48641;51.676;5.808;2023-11-21T15:08:43;4.03;;;1.77;;
62582;SDS011;48641;51.676;5.808;2023-11-21T15:11:10;4.50;;;1.80;;
62582;SDS011;48641;51.676;5.808;2023-11-21T15:13:39;4.25;;;1.63;;
62582;SDS011;48641;51.676;5.808;2023-11-21T15:16:06;3.95;;;1.65;;
62582;SDS011;48641;51.676;5.808;2023-11-21T15:18:34;5.30;;;2.00;;
62582;SDS011;48641;51.676;5.808;2023-11-21T15:21:00;5.28;;;1.80;;
62582;SDS011;48641;51.676;5.808;2023-11-21T15:23:28;3.60;;;1.45;;